默认 日期 大小 文件数 浏览量 最新下载 xml
blue one-磁力链接相关资源由用户搜索指令自动获取,结果来源于网络,本站不存储任何资料,亦不承担任何责任,请于24小时内删除,搜索到392个磁力,用时7ms。
    ... __ia_thumb.jpg": 9820, "Blue.Planet.II.S01E01.One.Ocean.720p.AMZN.WEB ... mkv": 495545619, "Blue.Planet.II.S01E01.One.Ocean.720p.AMZN. ... ogv": 268818452, "Blue.Planet.II.S01E01.One.Ocean.720p.AMZN.WEBDL ... xml": 1002, "Blue.Planet.II.S01E01.One.Ocean.720p.AMZN.WEBDL ...
创建时间: 2019-09-30 12:41:47 大小:1.05 GB 文件数量:6 热度:7 最近下载:2024-04-17 15:05:03
    {"PUBLICHASH.COM.nfo": 151, "plib_alektra_blue_kl061113_v2_720p_8000.mp4": 1570863775}
创建时间: 2019-09-30 15:34:34 大小:1.46 GB 文件数量:2 热度:11 最近下载:2025-02-26 18:38:01
    {"1.jpg": 352207, "front.jpg": 45690, "df-miblisonlb.mp4": 1490454587, "df-miblisonlb.nfo": 16679}
创建时间: 2019-10-02 01:29:54 大小:1.39 GB 文件数量:4 热度:12 最近下载:2025-08-06 13:52:02
    {"df-miblisonlb.mp4": 1490454587, "Torrent Downloaded From ExtraTorrent.cc.txt": 338}
创建时间: 2019-10-05 16:21:50 大小:1.39 GB 文件数量:2 热度:17 最近下载:2025-08-08 14:42:03
    {"RARBG.txt": 30, "blue.planet.ii.s01e01.one.ocean.hdtv.x264-plutonium.mkv": 588687374, "blue.planet.ii.s01e01.one.ocean.hdtv.x264-plutonium.nfo": 1811}
创建时间: 2019-10-12 03:56:04 大小:561.42 MB 文件数量:3 热度:3 最近下载:2022-11-12 10:25:17
    {"MAC_one_light.mp4": 68334016}
创建时间: 2019-10-21 22:10:16 大小:65.17 MB 文件数量:1 热度:3 最近下载:2022-11-12 10:35:01
    {"Blue Collar Comedy.avi": 1467903810, "Blue Collar Comedy Tour - One For The Road.torrent.loaded": 14295}
创建时间: 2019-10-23 20:33:31 大小:1.37 GB 文件数量:2 热度:3 最近下载:2022-11-12 10:30:31
    {"02 - Ya Ya.flac": 39889076, "03 - Toffi.flac": 74119465, "04 - Split Skins.flac": 62501852, "01 - Buhaina Chant.flac": 60019105}
创建时间: 2019-10-24 16:55:00 大小:225.57 MB 文件数量:4 热度:4 最近下载:2022-11-12 10:47:51
    {"df-miblisonlb.mp4": 1490454587}
创建时间: 2019-11-25 06:49:38 大小:1.39 GB 文件数量:1 热度:18 最近下载:2025-08-30 09:05:02
    {"scene1_lesbo.mp4": 374565321, "scene2_group.mp4": 649947559}
创建时间: 2019-12-09 06:45:01 大小:977.05 MB 文件数量:2 热度:10 最近下载:2025-09-13 09:30:02
    {"PrettyDirty.Brandi.Love.Mick.Blue.Chad.White.Two.Men.One.Wife.07.10.2016.mp4": 564598669}
创建时间: 2020-01-06 05:18:45 大小:538.44 MB 文件数量:1 热度:19 最近下载:2025-09-28 02:19:01
    ... "folder.jpg": 54235, "To Know One.cue": 2322, "09 - Dexter.flac ... Code.flac": 65370193, "To Know One.accurip": 1819, "08 - To ... Know One.flac": 43243671, "04 - Field ... 28851627, "Joey Calderazzo - To Know One.log": 10098, "Joey Calderazzo - To ...
创建时间: 2020-01-18 19:05:17 大小:391.56 MB 文件数量:19 热度:4 最近下载:2023-04-24 20:10:08
    {"01.jpg": 179861, "02.jpg": 211811, "03.jpg": 244116, "04.jpg": 251340, "05.jpg": 232364, "06.jpg": 213034, "07.jpg": 238800, "08.jpg": 233543, "09.jpg": 218288, "10.jpg": 209913, "11.jpg": 235750, "12.jpg": 222381, "13.jpg": 226326, "14.jpg": 228859, "15 ...
创建时间: 2020-02-08 09:39:08 大小:9.84 MB 文件数量:46 热度:3 最近下载:2022-04-17 05:46:53
    ... 104720, "Sunshine Blue & Gente si' & Gente no (two in one CD).log ... ": 3775, "Pino D'Angio - Sunshine Blue & Gente ... si' & Gente no (two in one CD).cue ... Angio - Sunshine Blue & Gente si' & Gente no (two in one CD).flac ...
创建时间: 2020-02-25 15:54:41 大小:514.11 MB 文件数量:4 热度:3 最近下载:2023-12-25 21:15:06
    ... 03.jpg": 73854, "02. Test One.mp3": 3602259, "03. Disturbia.mp3 ... , "04. Goldenfilter.mp3": 16482725, "01. One Way Traffic (Long).mp3": 64210550 ... , "07. One Way Traffic (Beatless Bonus).mp3 ...
创建时间: 2020-02-26 20:46:08 大小:175.33 MB 文件数量:10 热度:4 最近下载:2025-03-16 15:28:01
    ... .蓝色星球2.Blue.Planet.II.2017.E06.Coasts ... .蓝色星球2.Blue.Planet.II.2017.E02.The ... .蓝色星球2.Blue.Planet.II.2017.E04.Big ... 星球2.Blue.Planet.II.2017.E01.One.Ocean.BluRay.4K ... .蓝色星球2.Blue.Planet.II.2017.E05.Green ... .蓝色星球2.Blue.Planet.II.2017.E03.Coral ... .蓝色星球2.Blue.Planet.II.2017.E07. ...
创建时间: 2020-03-04 13:55:42 大小:58.61 GB 文件数量:32 热度:186 最近下载:2025-10-17 07:44:02
    {"CD1": {"Blue.Collar.Comedy.Tour.One.For.The.Road.DVDRip.XviD- ... ].avi": 733661184}, "CD2": {"Blue.Collar.Comedy.Tour.One.For.The.Road.DVDRip ... ].avi": 734253056}, "Sample": {"Blue.Collar.Comedy.Tour.One.For.The.Road.DVDRip ...
创建时间: 2020-03-06 17:50:29 大小:1.38 GB 文件数量:5 热度:4 最近下载:2025-08-06 03:20:03
    ... [480p].mkv": 304299439, "[ok] One Piece - 02 VOSTFR [480p].mkv ... ": 320505083, "[ok] One Piece - 03 VOSTFR [480p].mkv ... ": 311900961, "[ok] One Piece - 04 VOSTFR [480p].mkv ... ": 315753525, "[ok] One Piece - 05 VOSTFR [480p].mkv ...
创建时间: 2020-03-23 21:01:16 大小:17.57 GB 文件数量:122 热度:7 最近下载:2025-08-26 11:03:03
    ... .flac": 31476873, "Various Artists - blue light one.m3u": 990, "12. The Kinetic ...
创建时间: 2020-04-16 14:56:02 大小:391.89 MB 文件数量:15 热度:3 最近下载:2023-12-31 03:26:03
    {"Covers": {"df-miblisonlb-back.jpg": 60756, "df-miblisonlb-front.jpg": 45690}, "Sample": {"df-miblisonlb-sample.mp4": 16804551}, "df-miblisonlb.mp4": 1490454587, "df-miblisonlb.nfo": 16679}
创建时间: 2020-04-26 20:36:19 大小:1.4 GB 文件数量:5 热度:14 最近下载:2025-08-04 21:25:01